sensor_id;sensor_type;location;lat;lon;timestamp;P1;durP1;ratioP1;P2;durP2;ratioP2
5010;SDS011;2524;54.364;10.072;2023-01-28T00:00:48;2.40;;;2.30;;
5010;SDS011;2524;54.364;10.072;2023-01-28T00:03:14;1.97;;;1.97;;
5010;SDS011;2524;54.364;10.072;2023-01-28T00:05:40;2.60;;;2.50;;
5010;SDS011;2524;54.364;10.072;2023-01-28T00:08:05;2.70;;;2.30;;
5010;SDS011;2524;54.364;10.072;2023-01-28T00:10:31;2.43;;;2.33;;
5010;SDS011;2524;54.364;10.072;2023-01-28T00:12:56;2.27;;;2.27;;
5010;SDS011;2524;54.364;10.072;2023-01-28T00:15:22;2.47;;;2.37;;
5010;SDS011;2524;54.364;10.072;2023-01-28T00:17:49;3.00;;;2.90;;
5010;SDS011;2524;54.364;10.072;2023-01-28T00:20:15;3.70;;;3.50;;
5010;SDS011;2524;54.364;10.072;2023-01-28T00:22:45;2.80;;;2.60;;
5010;SDS011;2524;54.364;10.072;2023-01-28T00:25:14;2.77;;;2.60;;
5010;SDS011;2524;54.364;10.072;2023-01-28T00:27:40;3.27;;;3.10;;
5010;SDS011;2524;54.364;10.072;2023-01-28T00:30:06;2.90;;;2.80;;
5010;SDS011;2524;54.364;10.072;2023-01-28T00:32:33;2.13;;;2.13;;
5010;SDS011;2524;54.364;10.072;2023-01-28T00:34:59;1.97;;;1.97;;
5010;SDS011;2524;54.364;10.072;2023-01-28T00:37:24;2.60;;;2.50;;
5010;SDS011;2524;54.364;10.072;2023-01-28T00:39:50;3.00;;;2.90;;
5010;SDS011;2524;54.364;10.072;2023-01-28T00:42:15;2.13;;;2.07;;
5010;SDS011;2524;54.364;10.072;2023-01-28T00:44:42;2.40;;;2.30;;
5010;SDS011;2524;54.364;10.072;2023-01-28T00:47:07;2.90;;;2.70;;
5010;SDS011;2524;54.364;10.072;2023-01-28T00:49:33;2.03;;;2.03;;
5010;SDS011;2524;54.364;10.072;2023-01-28T00:51:59;2.80;;;2.70;;
5010;SDS011;2524;54.364;10.072;2023-01-28T00:54:24;2.80;;;2.70;;
5010;SDS011;2524;54.364;10.072;2023-01-28T00:56:50;2.93;;;2.83;;
5010;SDS011;2524;54.364;10.072;2023-01-28T00:59:17;3.03;;;2.93;;
5010;SDS011;2524;54.364;10.072;2023-01-28T01:01:43;2.43;;;2.43;;
5010;SDS011;2524;54.364;10.072;2023-01-28T01:04:08;2.57;;;2.47;;
5010;SDS011;2524;54.364;10.072;2023-01-28T01:06:35;2.83;;;2.60;;
5010;SDS011;2524;54.364;10.072;2023-01-28T01:09:04;2.77;;;2.67;;
5010;SDS011;2524;54.364;10.072;2023-01-28T01:11:31;3.20;;;3.10;;
5010;SDS011;2524;54.364;10.072;2023-01-28T01:13:57;2.00;;;2.00;;
5010;SDS011;2524;54.364;10.072;2023-01-28T01:16:25;4.93;;;2.63;;
5010;SDS011;2524;54.364;10.072;2023-01-28T01:18:52;2.97;;;2.87;;
5010;SDS011;2524;54.364;10.072;2023-01-28T01:21:20;3.00;;;2.90;;
5010;SDS011;2524;54.364;10.072;2023-01-28T01:23:48;3.10;;;2.90;;
5010;SDS011;2524;54.364;10.072;2023-01-28T01:26:13;2.40;;;2.30;;
5010;SDS011;2524;54.364;10.072;2023-01-28T01:28:40;2.30;;;2.20;;
5010;SDS011;2524;54.364;10.072;2023-01-28T01:31:07;2.67;;;2.57;;
5010;SDS011;2524;54.364;10.072;2023-01-28T01:33:37;3.10;;;2.90;;
5010;SDS011;2524;54.364;10.072;2023-01-28T01:36:04;3.60;;;3.30;;
5010;SDS011;2524;54.364;10.072;2023-01-28T01:38:29;2.57;;;2.40;;
5010;SDS011;2524;54.364;10.072;2023-01-28T01:40:56;2.50;;;2.50;;
5010;SDS011;2524;54.364;10.072;2023-01-28T01:43:23;2.37;;;2.27;;
5010;SDS011;2524;54.364;10.072;2023-01-28T01:45:59;2.53;;;2.43;;
5010;SDS011;2524;54.364;10.072;2023-01-28T01:48:27;2.47;;;2.47;;
5010;SDS011;2524;54.364;10.072;2023-01-28T01:51:03;2.80;;;2.70;;
5010;SDS011;2524;54.364;10.072;2023-01-28T01:53:33;3.00;;;2.90;;
5010;SDS011;2524;54.364;10.072;2023-01-28T01:56:01;2.60;;;2.60;;
5010;SDS011;2524;54.364;10.072;2023-01-28T01:58:30;2.80;;;2.60;;
5010;SDS011;2524;54.364;10.072;2023-01-28T02:00:59;3.20;;;3.00;;
5010;SDS011;2524;54.364;10.072;2023-01-28T02:06:28;3.23;;;3.13;;
5010;SDS011;2524;54.364;10.072;2023-01-28T02:08:55;3.47;;;3.30;;
5010;SDS011;2524;54.364;10.072;2023-01-28T02:11:21;2.80;;;2.70;;
5010;SDS011;2524;54.364;10.072;2023-01-28T02:13:51;3.10;;;3.00;;
5010;SDS011;2524;54.364;10.072;2023-01-28T02:16:20;2.80;;;2.70;;
5010;SDS011;2524;54.364;10.072;2023-01-28T02:18:46;2.83;;;2.63;;
5010;SDS011;2524;54.364;10.072;2023-01-28T02:24:23;3.33;;;3.23;;
5010;SDS011;2524;54.364;10.072;2023-01-28T02:30:15;3.40;;;3.20;;
5010;SDS011;2524;54.364;10.072;2023-01-28T02:32:53;3.27;;;3.07;;
5010;SDS011;2524;54.364;10.072;2023-01-28T02:35:42;2.93;;;2.83;;
5010;SDS011;2524;54.364;10.072;2023-01-28T02:40:54;2.63;;;2.57;;
5010;SDS011;2524;54.364;10.072;2023-01-28T02:43:33;3.00;;;2.90;;
5010;SDS011;2524;54.364;10.072;2023-01-28T02:45:59;3.03;;;2.93;;
5010;SDS011;2524;54.364;10.072;2023-01-28T02:48:55;2.93;;;2.83;;
5010;SDS011;2524;54.364;10.072;2023-01-28T02:54:17;2.77;;;2.77;;
5010;SDS011;2524;54.364;10.072;2023-01-28T02:57:13;2.53;;;2.50;;
5010;SDS011;2524;54.364;10.072;2023-01-28T03:00:00;3.30;;;3.10;;
5010;SDS011;2524;54.364;10.072;2023-01-28T03:02:35;3.37;;;3.17;;
5010;SDS011;2524;54.364;10.072;2023-01-28T03:05:12;3.00;;;2.90;;
5010;SDS011;2524;54.364;10.072;2023-01-28T03:07:48;3.07;;;2.97;;
5010;SDS011;2524;54.364;10.072;2023-01-28T03:10:16;2.83;;;2.60;;
5010;SDS011;2524;54.364;10.072;2023-01-28T03:12:45;2.90;;;2.80;;
5010;SDS011;2524;54.364;10.072;2023-01-28T03:15:33;2.97;;;2.90;;
5010;SDS011;2524;54.364;10.072;2023-01-28T03:18:40;2.77;;;2.67;;
5010;SDS011;2524;54.364;10.072;2023-01-28T03:21:36;3.43;;;3.30;;
5010;SDS011;2524;54.364;10.072;2023-01-28T03:24:27;4.03;;;3.73;;
5010;SDS011;2524;54.364;10.072;2023-01-28T03:27:24;3.20;;;3.10;;
5010;SDS011;2524;54.364;10.072;2023-01-28T03:30:19;3.10;;;3.00;;
5010;SDS011;2524;54.364;10.072;2023-01-28T03:33:09;3.37;;;3.17;;
5010;SDS011;2524;54.364;10.072;2023-01-28T03:35:54;3.00;;;2.90;;
5010;SDS011;2524;54.364;10.072;2023-01-28T03:38:39;3.20;;;3.00;;
5010;SDS011;2524;54.364;10.072;2023-01-28T03:41:06;2.90;;;2.80;;
5010;SDS011;2524;54.364;10.072;2023-01-28T03:43:35;3.10;;;3.00;;
5010;SDS011;2524;54.364;10.072;2023-01-28T03:46:01;3.17;;;3.07;;
5010;SDS011;2524;54.364;10.072;2023-01-28T03:48:30;2.87;;;2.77;;
5010;SDS011;2524;54.364;10.072;2023-01-28T03:50:56;3.67;;;3.47;;
5010;SDS011;2524;54.364;10.072;2023-01-28T03:53:24;3.30;;;3.20;;
5010;SDS011;2524;54.364;10.072;2023-01-28T03:55:50;3.17;;;3.03;;
5010;SDS011;2524;54.364;10.072;2023-01-28T03:58:18;3.10;;;3.00;;
5010;SDS011;2524;54.364;10.072;2023-01-28T04:00:44;3.20;;;3.00;;
5010;SDS011;2524;54.364;10.072;2023-01-28T04:03:10;3.03;;;2.93;;
5010;SDS011;2524;54.364;10.072;2023-01-28T04:08:26;3.17;;;3.00;;
5010;SDS011;2524;54.364;10.072;2023-01-28T04:10:52;3.20;;;3.10;;
5010;SDS011;2524;54.364;10.072;2023-01-28T04:13:18;2.90;;;2.80;;
5010;SDS011;2524;54.364;10.072;2023-01-28T04:15:44;3.80;;;3.50;;
5010;SDS011;2524;54.364;10.072;2023-01-28T04:18:10;3.47;;;3.37;;
5010;SDS011;2524;54.364;10.072;2023-01-28T04:20:36;3.43;;;3.23;;
5010;SDS011;2524;54.364;10.072;2023-01-28T04:23:02;3.80;;;3.60;;
5010;SDS011;2524;54.364;10.072;2023-01-28T04:25:28;3.70;;;3.60;;
5010;SDS011;2524;54.364;10.072;2023-01-28T04:27:54;2.77;;;2.73;;
5010;SDS011;2524;54.364;10.072;2023-01-28T04:30:20;3.17;;;3.07;;
5010;SDS011;2524;54.364;10.072;2023-01-28T04:32:46;3.07;;;2.97;;
5010;SDS011;2524;54.364;10.072;2023-01-28T04:35:14;3.80;;;3.60;;
5010;SDS011;2524;54.364;10.072;2023-01-28T04:37:40;3.50;;;3.30;;
5010;SDS011;2524;54.364;10.072;2023-01-28T04:40:07;3.20;;;3.10;;
5010;SDS011;2524;54.364;10.072;2023-01-28T04:42:33;3.80;;;3.60;;
5010;SDS011;2524;54.364;10.072;2023-01-28T04:44:58;2.80;;;2.77;;
5010;SDS011;2524;54.364;10.072;2023-01-28T04:47:24;3.60;;;3.50;;
5010;SDS011;2524;54.364;10.072;2023-01-28T04:49:50;3.30;;;3.20;;
5010;SDS011;2524;54.364;10.072;2023-01-28T04:52:15;3.97;;;3.77;;
5010;SDS011;2524;54.364;10.072;2023-01-28T04:54:41;3.07;;;3.07;;
5010;SDS011;2524;54.364;10.072;2023-01-28T04:57:06;4.50;;;4.20;;
5010;SDS011;2524;54.364;10.072;2023-01-28T04:59:32;5.57;;;5.23;;
5010;SDS011;2524;54.364;10.072;2023-01-28T05:01:57;3.80;;;3.60;;
5010;SDS011;2524;54.364;10.072;2023-01-28T05:04:23;4.47;;;4.27;;
5010;SDS011;2524;54.364;10.072;2023-01-28T05:06:49;4.57;;;4.37;;
5010;SDS011;2524;54.364;10.072;2023-01-28T05:09:14;4.33;;;4.13;;
5010;SDS011;2524;54.364;10.072;2023-01-28T05:11:40;4.10;;;4.00;;
5010;SDS011;2524;54.364;10.072;2023-01-28T05:14:05;3.90;;;3.80;;
5010;SDS011;2524;54.364;10.072;2023-01-28T05:16:31;4.97;;;4.77;;
5010;SDS011;2524;54.364;10.072;2023-01-28T05:18:58;4.57;;;4.37;;
5010;SDS011;2524;54.364;10.072;2023-01-28T05:21:25;4.27;;;4.07;;
5010;SDS011;2524;54.364;10.072;2023-01-28T05:23:51;4.77;;;4.47;;
5010;SDS011;2524;54.364;10.072;2023-01-28T05:26:16;4.10;;;3.90;;
5010;SDS011;2524;54.364;10.072;2023-01-28T05:28:42;4.93;;;4.73;;
5010;SDS011;2524;54.364;10.072;2023-01-28T05:31:08;4.73;;;4.37;;
5010;SDS011;2524;54.364;10.072;2023-01-28T05:33:34;4.83;;;4.53;;
5010;SDS011;2524;54.364;10.072;2023-01-28T05:36:00;4.87;;;4.27;;
5010;SDS011;2524;54.364;10.072;2023-01-28T05:38:26;5.23;;;4.83;;
5010;SDS011;2524;54.364;10.072;2023-01-28T05:40:52;5.17;;;4.80;;
5010;SDS011;2524;54.364;10.072;2023-01-28T05:43:17;4.53;;;4.33;;
5010;SDS011;2524;54.364;10.072;2023-01-28T05:45:43;4.20;;;4.00;;
5010;SDS011;2524;54.364;10.072;2023-01-28T05:48:09;4.03;;;3.83;;
5010;SDS011;2524;54.364;10.072;2023-01-28T05:50:34;3.50;;;3.40;;
5010;SDS011;2524;54.364;10.072;2023-01-28T05:53:00;4.73;;;4.53;;
5010;SDS011;2524;54.364;10.072;2023-01-28T05:55:28;4.03;;;3.80;;
5010;SDS011;2524;54.364;10.072;2023-01-28T05:57:54;4.00;;;3.80;;
5010;SDS011;2524;54.364;10.072;2023-01-28T06:00:20;4.80;;;4.60;;
5010;SDS011;2524;54.364;10.072;2023-01-28T06:02:45;4.87;;;4.57;;
5010;SDS011;2524;54.364;10.072;2023-01-28T06:05:11;4.83;;;4.60;;
5010;SDS011;2524;54.364;10.072;2023-01-28T06:07:36;4.40;;;4.20;;
5010;SDS011;2524;54.364;10.072;2023-01-28T06:10:02;4.63;;;4.43;;
5010;SDS011;2524;54.364;10.072;2023-01-28T06:12:28;4.50;;;4.20;;
5010;SDS011;2524;54.364;10.072;2023-01-28T06:14:53;4.73;;;4.53;;
5010;SDS011;2524;54.364;10.072;2023-01-28T06:17:19;4.83;;;4.53;;
5010;SDS011;2524;54.364;10.072;2023-01-28T06:19:44;4.70;;;4.43;;
5010;SDS011;2524;54.364;10.072;2023-01-28T06:22:10;4.10;;;3.90;;
5010;SDS011;2524;54.364;10.072;2023-01-28T06:24:35;4.37;;;4.07;;
5010;SDS011;2524;54.364;10.072;2023-01-28T06:27:01;4.80;;;4.43;;
5010;SDS011;2524;54.364;10.072;2023-01-28T06:29:27;4.90;;;4.60;;
5010;SDS011;2524;54.364;10.072;2023-01-28T06:31:52;4.27;;;4.03;;
5010;SDS011;2524;54.364;10.072;2023-01-28T06:34:18;4.73;;;4.53;;
5010;SDS011;2524;54.364;10.072;2023-01-28T06:36:44;5.70;;;5.20;;
5010;SDS011;2524;54.364;10.072;2023-01-28T06:39:09;5.07;;;4.63;;
5010;SDS011;2524;54.364;10.072;2023-01-28T06:41:35;5.00;;;4.70;;
5010;SDS011;2524;54.364;10.072;2023-01-28T06:44:01;7.17;;;5.47;;
5010;SDS011;2524;54.364;10.072;2023-01-28T06:46:26;5.23;;;4.90;;
5010;SDS011;2524;54.364;10.072;2023-01-28T06:48:52;5.43;;;5.13;;
5010;SDS011;2524;54.364;10.072;2023-01-28T06:51:18;7.77;;;5.67;;
5010;SDS011;2524;54.364;10.072;2023-01-28T06:53:43;5.37;;;4.97;;
5010;SDS011;2524;54.364;10.072;2023-01-28T06:56:09;5.53;;;5.23;;
5010;SDS011;2524;54.364;10.072;2023-01-28T06:58:35;4.87;;;4.67;;
5010;SDS011;2524;54.364;10.072;2023-01-28T07:01:00;5.87;;;5.37;;
5010;SDS011;2524;54.364;10.072;2023-01-28T07:03:26;5.27;;;4.87;;
5010;SDS011;2524;54.364;10.072;2023-01-28T07:05:51;6.30;;;5.90;;
5010;SDS011;2524;54.364;10.072;2023-01-28T07:08:17;6.03;;;5.53;;
5010;SDS011;2524;54.364;10.072;2023-01-28T07:10:44;5.77;;;5.47;;
5010;SDS011;2524;54.364;10.072;2023-01-28T07:13:10;7.87;;;7.07;;
5010;SDS011;2524;54.364;10.072;2023-01-28T07:15:36;8.07;;;6.80;;
5010;SDS011;2524;54.364;10.072;2023-01-28T07:18:02;6.97;;;6.37;;
5010;SDS011;2524;54.364;10.072;2023-01-28T07:20:27;6.07;;;5.67;;
5010;SDS011;2524;54.364;10.072;2023-01-28T07:22:53;6.20;;;5.77;;
5010;SDS011;2524;54.364;10.072;2023-01-28T07:25:18;6.47;;;6.07;;
5010;SDS011;2524;54.364;10.072;2023-01-28T07:27:45;6.90;;;6.40;;
5010;SDS011;2524;54.364;10.072;2023-01-28T07:30:15;6.67;;;6.10;;
5010;SDS011;2524;54.364;10.072;2023-01-28T07:32:41;6.53;;;6.13;;
5010;SDS011;2524;54.364;10.072;2023-01-28T07:35:07;6.50;;;6.00;;
5010;SDS011;2524;54.364;10.072;2023-01-28T07:37:33;6.20;;;5.73;;
5010;SDS011;2524;54.364;10.072;2023-01-28T07:39:59;7.60;;;7.10;;
5010;SDS011;2524;54.364;10.072;2023-01-28T07:42:24;6.87;;;6.37;;
5010;SDS011;2524;54.364;10.072;2023-01-28T07:44:50;7.67;;;7.03;;
5010;SDS011;2524;54.364;10.072;2023-01-28T07:47:15;5.60;;;5.30;;
5010;SDS011;2524;54.364;10.072;2023-01-28T07:49:41;6.80;;;6.30;;
5010;SDS011;2524;54.364;10.072;2023-01-28T07:52:07;7.47;;;6.83;;
5010;SDS011;2524;54.364;10.072;2023-01-28T07:54:32;8.17;;;7.43;;
5010;SDS011;2524;54.364;10.072;2023-01-28T07:56:58;8.40;;;7.17;;
5010;SDS011;2524;54.364;10.072;2023-01-28T07:59:24;7.30;;;6.70;;
5010;SDS011;2524;54.364;10.072;2023-01-28T08:01:50;7.73;;;7.07;;
5010;SDS011;2524;54.364;10.072;2023-01-28T08:04:18;7.30;;;6.80;;
5010;SDS011;2524;54.364;10.072;2023-01-28T08:06:43;7.07;;;6.47;;
5010;SDS011;2524;54.364;10.072;2023-01-28T08:09:09;9.50;;;8.37;;
5010;SDS011;2524;54.364;10.072;2023-01-28T08:11:36;8.63;;;7.90;;
5010;SDS011;2524;54.364;10.072;2023-01-28T08:14:03;7.97;;;7.27;;
5010;SDS011;2524;54.364;10.072;2023-01-28T08:16:28;6.03;;;5.63;;
5010;SDS011;2524;54.364;10.072;2023-01-28T08:18:55;7.10;;;6.60;;
5010;SDS011;2524;54.364;10.072;2023-01-28T08:21:21;6.60;;;6.20;;
5010;SDS011;2524;54.364;10.072;2023-01-28T08:23:47;6.30;;;5.90;;
5010;SDS011;2524;54.364;10.072;2023-01-28T08:26:12;9.80;;;9.00;;
5010;SDS011;2524;54.364;10.072;2023-01-28T08:28:38;7.90;;;7.30;;
5010;SDS011;2524;54.364;10.072;2023-01-28T08:31:04;11.20;;;8.37;;
5010;SDS011;2524;54.364;10.072;2023-01-28T08:33:30;7.20;;;6.70;;
5010;SDS011;2524;54.364;10.072;2023-01-28T08:35:56;7.23;;;6.63;;
5010;SDS011;2524;54.364;10.072;2023-01-28T08:38:21;8.77;;;8.00;;
5010;SDS011;2524;54.364;10.072;2023-01-28T08:40:47;8.17;;;7.47;;
5010;SDS011;2524;54.364;10.072;2023-01-28T08:43:19;7.77;;;7.07;;
5010;SDS011;2524;54.364;10.072;2023-01-28T08:45:45;7.60;;;6.90;;
5010;SDS011;2524;54.364;10.072;2023-01-28T08:48:11;7.57;;;6.97;;
5010;SDS011;2524;54.364;10.072;2023-01-28T08:50:39;7.90;;;7.20;;
5010;SDS011;2524;54.364;10.072;2023-01-28T08:53:09;7.30;;;6.47;;
5010;SDS011;2524;54.364;10.072;2023-01-28T08:55:40;6.93;;;6.43;;
5010;SDS011;2524;54.364;10.072;2023-01-28T08:58:07;6.10;;;5.70;;
5010;SDS011;2524;54.364;10.072;2023-01-28T09:00:35;6.53;;;6.13;;
5010;SDS011;2524;54.364;10.072;2023-01-28T09:03:01;6.50;;;6.10;;
5010;SDS011;2524;54.364;10.072;2023-01-28T09:05:28;10.50;;;9.40;;
5010;SDS011;2524;54.364;10.072;2023-01-28T09:07:54;12.70;;;11.33;;
5010;SDS011;2524;54.364;10.072;2023-01-28T09:10:19;11.97;;;10.77;;
5010;SDS011;2524;54.364;10.072;2023-01-28T09:12:45;9.07;;;8.27;;
5010;SDS011;2524;54.364;10.072;2023-01-28T09:15:11;8.80;;;8.00;;
5010;SDS011;2524;54.364;10.072;2023-01-28T09:17:37;8.00;;;7.20;;
5010;SDS011;2524;54.364;10.072;2023-01-28T09:20:03;10.53;;;9.57;;
5010;SDS011;2524;54.364;10.072;2023-01-28T09:22:29;8.23;;;7.53;;
5010;SDS011;2524;54.364;10.072;2023-01-28T09:24:56;13.17;;;11.83;;
5010;SDS011;2524;54.364;10.072;2023-01-28T09:27:22;15.13;;;11.23;;
5010;SDS011;2524;54.364;10.072;2023-01-28T09:29:47;11.80;;;10.70;;
5010;SDS011;2524;54.364;10.072;2023-01-28T09:32:13;12.07;;;10.87;;
5010;SDS011;2524;54.364;10.072;2023-01-28T09:34:38;9.47;;;8.57;;
5010;SDS011;2524;54.364;10.072;2023-01-28T09:37:04;11.00;;;9.90;;
5010;SDS011;2524;54.364;10.072;2023-01-28T09:39:29;8.03;;;7.43;;
5010;SDS011;2524;54.364;10.072;2023-01-28T09:49:57;11.33;;;10.23;;
5010;SDS011;2524;54.364;10.072;2023-01-28T09:52:27;13.77;;;11.93;;
5010;SDS011;2524;54.364;10.072;2023-01-28T09:54:59;14.70;;;13.10;;
5010;SDS011;2524;54.364;10.072;2023-01-28T09:57:30;11.83;;;10.63;;
5010;SDS011;2524;54.364;10.072;2023-01-28T10:00:14;12.60;;;10.90;;
5010;SDS011;2524;54.364;10.072;2023-01-28T10:02:47;11.00;;;9.87;;
5010;SDS011;2524;54.364;10.072;2023-01-28T10:05:32;10.37;;;9.37;;
5010;SDS011;2524;54.364;10.072;2023-01-28T10:10:43;9.47;;;8.50;;
5010;SDS011;2524;54.364;10.072;2023-01-28T10:16:12;11.07;;;9.97;;
5010;SDS011;2524;54.364;10.072;2023-01-28T10:21:17;12.63;;;11.13;;
5010;SDS011;2524;54.364;10.072;2023-01-28T10:23:54;11.97;;;10.80;;
5010;SDS011;2524;54.364;10.072;2023-01-28T10:26:36;16.43;;;14.73;;
5010;SDS011;2524;54.364;10.072;2023-01-28T10:29:09;14.83;;;12.57;;
5010;SDS011;2524;54.364;10.072;2023-01-28T10:32:04;9.80;;;8.80;;
5010;SDS011;2524;54.364;10.072;2023-01-28T10:34:37;13.13;;;11.83;;
5010;SDS011;2524;54.364;10.072;2023-01-28T10:37:03;13.20;;;11.67;;
5010;SDS011;2524;54.364;10.072;2023-01-28T10:39:29;12.20;;;11.00;;
5010;SDS011;2524;54.364;10.072;2023-01-28T10:41:54;10.27;;;9.27;;
5010;SDS011;2524;54.364;10.072;2023-01-28T10:44:24;11.67;;;10.47;;
5010;SDS011;2524;54.364;10.072;2023-01-28T10:47:11;12.50;;;11.30;;
5010;SDS011;2524;54.364;10.072;2023-01-28T10:49:49;13.53;;;11.70;;
5010;SDS011;2524;54.364;10.072;2023-01-28T10:52:20;20.90;;;15.90;;
5010;SDS011;2524;54.364;10.072;2023-01-28T10:54:45;13.20;;;11.60;;
5010;SDS011;2524;54.364;10.072;2023-01-28T10:57:12;15.50;;;13.60;;
5010;SDS011;2524;54.364;10.072;2023-01-28T10:59:41;16.80;;;14.43;;
5010;SDS011;2524;54.364;10.072;2023-01-28T11:04:48;10.90;;;9.90;;
5010;SDS011;2524;54.364;10.072;2023-01-28T11:07:28;12.67;;;11.37;;
5010;SDS011;2524;54.364;10.072;2023-01-28T11:09:54;14.97;;;13.37;;
5010;SDS011;2524;54.364;10.072;2023-01-28T11:12:29;13.67;;;12.33;;
5010;SDS011;2524;54.364;10.072;2023-01-28T11:14:59;12.93;;;11.63;;
5010;SDS011;2524;54.364;10.072;2023-01-28T11:17:27;15.97;;;14.27;;
5010;SDS011;2524;54.364;10.072;2023-01-28T11:19:59;13.27;;;12.00;;
5010;SDS011;2524;54.364;10.072;2023-01-28T11:22:37;19.30;;;16.77;;
5010;SDS011;2524;54.364;10.072;2023-01-28T11:25:13;22.70;;;18.90;;
5010;SDS011;2524;54.364;10.072;2023-01-28T11:27:40;17.73;;;15.77;;
5010;SDS011;2524;54.364;10.072;2023-01-28T11:33:02;13.33;;;12.03;;
5010;SDS011;2524;54.364;10.072;2023-01-28T11:35:54;20.70;;;17.37;;
5010;SDS011;2524;54.364;10.072;2023-01-28T11:38:22;15.33;;;13.73;;
5010;SDS011;2524;54.364;10.072;2023-01-28T11:40:50;13.27;;;11.90;;
5010;SDS011;2524;54.364;10.072;2023-01-28T11:43:21;12.97;;;11.67;;
5010;SDS011;2524;54.364;10.072;2023-01-28T11:59:44;10.20;;;9.20;;
5010;SDS011;2524;54.364;10.072;2023-01-28T12:08:06;13.97;;;12.57;;
5010;SDS011;2524;54.364;10.072;2023-01-28T12:24:20;13.43;;;12.03;;
5010;SDS011;2524;54.364;10.072;2023-01-28T12:32:07;12.30;;;11.17;;
5010;SDS011;2524;54.364;10.072;2023-01-28T12:43:07;13.10;;;11.73;;
5010;SDS011;2524;54.364;10.072;2023-01-28T12:45:39;13.57;;;12.27;;
5010;SDS011;2524;54.364;10.072;2023-01-28T12:48:20;12.00;;;10.70;;
5010;SDS011;2524;54.364;10.072;2023-01-28T12:51:17;14.00;;;12.60;;
5010;SDS011;2524;54.364;10.072;2023-01-28T12:56:35;11.30;;;10.20;;
5010;SDS011;2524;54.364;10.072;2023-01-28T12:59:15;11.50;;;10.40;;
5010;SDS011;2524;54.364;10.072;2023-01-28T13:04:28;12.67;;;11.40;;
5010;SDS011;2524;54.364;10.072;2023-01-28T13:07:13;15.30;;;13.10;;
5010;SDS011;2524;54.364;10.072;2023-01-28T13:09:50;11.33;;;10.23;;
5010;SDS011;2524;54.364;10.072;2023-01-28T13:12:20;11.80;;;10.70;;
5010;SDS011;2524;54.364;10.072;2023-01-28T13:14:47;12.50;;;11.37;;
5010;SDS011;2524;54.364;10.072;2023-01-28T13:17:32;17.10;;;14.80;;
5010;SDS011;2524;54.364;10.072;2023-01-28T13:19:58;12.40;;;11.10;;
5010;SDS011;2524;54.364;10.072;2023-01-28T13:22:26;9.57;;;8.80;;
5010;SDS011;2524;54.364;10.072;2023-01-28T13:24:54;9.70;;;8.80;;
5010;SDS011;2524;54.364;10.072;2023-01-28T13:27:26;11.07;;;10.03;;
5010;SDS011;2524;54.364;10.072;2023-01-28T13:30:00;15.23;;;12.47;;
5010;SDS011;2524;54.364;10.072;2023-01-28T13:32:53;13.87;;;11.30;;
5010;SDS011;2524;54.364;10.072;2023-01-28T13:38:09;9.53;;;8.73;;
5010;SDS011;2524;54.364;10.072;2023-01-28T13:40:41;11.23;;;10.10;;
5010;SDS011;2524;54.364;10.072;2023-01-28T13:43:33;11.00;;;10.00;;
5010;SDS011;2524;54.364;10.072;2023-01-28T13:46:01;11.07;;;9.83;;
5010;SDS011;2524;54.364;10.072;2023-01-28T13:51:03;11.53;;;10.37;;
5010;SDS011;2524;54.364;10.072;2023-01-28T13:53:40;9.90;;;8.90;;
5010;SDS011;2524;54.364;10.072;2023-01-28T13:56:22;9.17;;;8.37;;
5010;SDS011;2524;54.364;10.072;2023-01-28T13:58:59;12.97;;;11.63;;
5010;SDS011;2524;54.364;10.072;2023-01-28T14:02:14;10.67;;;9.63;;
5010;SDS011;2524;54.364;10.072;2023-01-28T14:10:13;16.03;;;13.17;;
5010;SDS011;2524;54.364;10.072;2023-01-28T14:18:41;8.80;;;8.10;;
5010;SDS011;2524;54.364;10.072;2023-01-28T14:21:14;9.40;;;8.60;;
5010;SDS011;2524;54.364;10.072;2023-01-28T14:23:43;6.93;;;6.43;;
5010;SDS011;2524;54.364;10.072;2023-01-28T14:26:22;8.73;;;8.03;;
5010;SDS011;2524;54.364;10.072;2023-01-28T14:31:40;13.40;;;11.23;;
5010;SDS011;2524;54.364;10.072;2023-01-28T14:36:44;9.87;;;8.97;;
5010;SDS011;2524;54.364;10.072;2023-01-28T14:39:24;10.97;;;10.03;;
5010;SDS011;2524;54.364;10.072;2023-01-28T14:41:52;10.70;;;8.40;;
5010;SDS011;2524;54.364;10.072;2023-01-28T14:44:55;10.80;;;9.70;;
5010;SDS011;2524;54.364;10.072;2023-01-28T14:47:30;9.10;;;8.23;;
5010;SDS011;2524;54.364;10.072;2023-01-28T14:50:05;12.57;;;10.40;;
5010;SDS011;2524;54.364;10.072;2023-01-28T14:53:03;12.00;;;10.20;;
5010;SDS011;2524;54.364;10.072;2023-01-28T14:58:50;10.00;;;9.07;;
5010;SDS011;2524;54.364;10.072;2023-01-28T15:01:24;10.20;;;9.40;;
5010;SDS011;2524;54.364;10.072;2023-01-28T15:03:51;10.23;;;9.33;;
5010;SDS011;2524;54.364;10.072;2023-01-28T15:06:21;9.13;;;8.40;;
5010;SDS011;2524;54.364;10.072;2023-01-28T15:08:49;8.37;;;7.67;;
5010;SDS011;2524;54.364;10.072;2023-01-28T15:11:17;8.17;;;7.43;;
5010;SDS011;2524;54.364;10.072;2023-01-28T15:13:46;9.63;;;8.83;;
5010;SDS011;2524;54.364;10.072;2023-01-28T15:16:19;7.80;;;7.20;;
5010;SDS011;2524;54.364;10.072;2023-01-28T15:18:52;8.57;;;7.80;;
5010;SDS011;2524;54.364;10.072;2023-01-28T15:21:20;7.97;;;7.27;;
5010;SDS011;2524;54.364;10.072;2023-01-28T15:23:47;9.67;;;7.83;;
5010;SDS011;2524;54.364;10.072;2023-01-28T15:26:19;8.40;;;7.67;;
5010;SDS011;2524;54.364;10.072;2023-01-28T15:28:51;8.30;;;7.60;;
5010;SDS011;2524;54.364;10.072;2023-01-28T15:34:09;7.90;;;7.30;;
5010;SDS011;2524;54.364;10.072;2023-01-28T15:36:33;9.40;;;8.50;;
5010;SDS011;2524;54.364;10.072;2023-01-28T15:38:59;7.83;;;7.07;;
5010;SDS011;2524;54.364;10.072;2023-01-28T15:41:31;12.33;;;11.00;;
5010;SDS011;2524;54.364;10.072;2023-01-28T15:44:00;14.40;;;10.90;;
5010;SDS011;2524;54.364;10.072;2023-01-28T15:46:27;13.73;;;11.23;;
5010;SDS011;2524;54.364;10.072;2023-01-28T15:48:57;9.87;;;8.97;;
5010;SDS011;2524;54.364;10.072;2023-01-28T15:51:25;9.97;;;9.07;;
5010;SDS011;2524;54.364;10.072;2023-01-28T15:53:57;11.70;;;9.83;;
5010;SDS011;2524;54.364;10.072;2023-01-28T15:56:26;10.57;;;9.57;;
5010;SDS011;2524;54.364;10.072;2023-01-28T15:58:53;10.73;;;9.70;;
5010;SDS011;2524;54.364;10.072;2023-01-28T16:01:20;14.53;;;10.67;;
5010;SDS011;2524;54.364;10.072;2023-01-28T16:04:01;11.23;;;8.63;;
5010;SDS011;2524;54.364;10.072;2023-01-28T16:06:35;7.60;;;7.00;;
5010;SDS011;2524;54.364;10.072;2023-01-28T16:09:03;9.10;;;8.30;;
5010;SDS011;2524;54.364;10.072;2023-01-28T16:11:32;9.57;;;8.77;;
5010;SDS011;2524;54.364;10.072;2023-01-28T16:13:59;8.40;;;7.70;;
5010;SDS011;2524;54.364;10.072;2023-01-28T16:16:26;10.10;;;9.13;;
5010;SDS011;2524;54.364;10.072;2023-01-28T16:18:54;8.57;;;7.83;;
5010;SDS011;2524;54.364;10.072;2023-01-28T16:21:21;11.50;;;10.23;;
5010;SDS011;2524;54.364;10.072;2023-01-28T16:24:00;10.33;;;9.33;;
5010;SDS011;2524;54.364;10.072;2023-01-28T16:26:28;8.50;;;7.80;;
5010;SDS011;2524;54.364;10.072;2023-01-28T16:28:55;8.50;;;7.73;;
5010;SDS011;2524;54.364;10.072;2023-01-28T16:31:21;9.70;;;8.80;;
5010;SDS011;2524;54.364;10.072;2023-01-28T16:33:46;10.70;;;9.70;;
5010;SDS011;2524;54.364;10.072;2023-01-28T16:36:13;10.27;;;9.33;;
5010;SDS011;2524;54.364;10.072;2023-01-28T16:38:40;8.90;;;8.10;;
5010;SDS011;2524;54.364;10.072;2023-01-28T16:41:19;11.47;;;9.00;;
5010;SDS011;2524;54.364;10.072;2023-01-28T16:43:51;10.63;;;9.10;;
5010;SDS011;2524;54.364;10.072;2023-01-28T16:46:17;9.70;;;8.70;;
5010;SDS011;2524;54.364;10.072;2023-01-28T16:48:43;9.50;;;8.50;;
5010;SDS011;2524;54.364;10.072;2023-01-28T16:51:15;12.67;;;10.87;;
5010;SDS011;2524;54.364;10.072;2023-01-28T16:53:42;12.90;;;11.40;;
5010;SDS011;2524;54.364;10.072;2023-01-28T16:56:16;9.47;;;8.57;;
5010;SDS011;2524;54.364;10.072;2023-01-28T16:58:44;10.47;;;9.40;;
5010;SDS011;2524;54.364;10.072;2023-01-28T17:01:10;13.47;;;11.13;;
5010;SDS011;2524;54.364;10.072;2023-01-28T17:03:36;11.23;;;10.13;;
5010;SDS011;2524;54.364;10.072;2023-01-28T17:06:02;11.50;;;9.57;;
5010;SDS011;2524;54.364;10.072;2023-01-28T17:08:28;9.37;;;8.57;;
5010;SDS011;2524;54.364;10.072;2023-01-28T17:10:54;9.30;;;8.43;;